createdAt,value
2022-12-23T00:01:33.058Z,99113.66
2022-12-23T00:04:02.302Z,99107.34
2022-12-23T00:06:31.123Z,99109.13
2022-12-23T00:08:59.601Z,99093.50
2022-12-23T00:11:30.117Z,99075.88
2022-12-23T00:14:21.213Z,99066.97
2022-12-23T00:16:53.078Z,99064.72
2022-12-23T00:19:21.782Z,99063.97
2022-12-23T00:21:50.003Z,99063.78
2022-12-23T00:24:18.251Z,99062.38
2022-12-23T00:26:46.605Z,99049.25
2022-12-23T00:29:15.205Z,99038.88
2022-12-23T00:31:43.403Z,99041.16
2022-12-23T00:34:13.822Z,99024.50
2022-12-23T00:36:42.141Z,99023.25
2022-12-23T00:39:30.314Z,99024.69
2022-12-23T00:42:16.076Z,99016.97
2022-12-23T00:44:44.176Z,99007.63
2022-12-23T00:47:32.390Z,98988.88
2022-12-23T00:50:02.181Z,98972.22
2022-12-23T00:52:31.398Z,98969.66
2022-12-23T00:55:00.102Z,98964.34
2022-12-23T00:57:28.661Z,98960.97
2022-12-23T00:59:56.833Z,98954.25
2022-12-23T01:02:42.534Z,98950.38
2022-12-23T01:05:31.040Z,98950.16
2022-12-23T01:07:59.445Z,98948.06
2022-12-23T01:10:27.686Z,98949.63
2022-12-23T01:12:56.031Z,98946.91
2022-12-23T01:15:24.622Z,98949.16
2022-12-23T01:17:52.853Z,98942.88
2022-12-23T01:20:23.025Z,98933.81
2022-12-23T01:22:51.578Z,98935.22
2022-12-23T01:25:19.835Z,98926.16
2022-12-23T01:27:47.982Z,98925.75
2022-12-23T01:30:16.557Z,98921.03
2022-12-23T01:32:44.852Z,98912.09
2022-12-23T01:35:13.199Z,98918.81
2022-12-23T01:37:42.858Z,98915.75
2022-12-23T01:40:11.429Z,98909.75
2022-12-23T01:42:44.318Z,98910.16
2022-12-23T01:45:17.152Z,98913.25
2022-12-23T01:47:47.385Z,98918.03
2022-12-23T01:50:17.416Z,98914.34
2022-12-23T01:52:51.337Z,98908.88
2022-12-23T01:55:21.050Z,98905.59
2022-12-23T01:57:49.918Z,98896.28
2022-12-23T02:00:35.622Z,98891.47
2022-12-23T02:03:21.466Z,98885.66
2022-12-23T02:05:52.839Z,98882.78
2022-12-23T02:08:39.929Z,98877.53
2022-12-23T02:11:32.807Z,98867.53
2022-12-23T02:14:27.017Z,98854.41
2022-12-23T02:17:01.370Z,98854.03
2022-12-23T02:19:41.570Z,98846.94
2022-12-23T02:22:19.949Z,98849.69
2022-12-23T02:25:10.118Z,98844.13
2022-12-23T02:27:47.241Z,98850.03
2022-12-23T02:30:30.352Z,98854.44
2022-12-23T02:33:27.193Z,98848.00
2022-12-23T02:36:00.028Z,98840.75
2022-12-23T02:38:31.102Z,98836.44
2022-12-23T02:41:06.470Z,98835.81
2022-12-23T02:43:41.408Z,98827.31
2022-12-23T02:46:12.463Z,98818.81
2022-12-23T02:48:47.180Z,98809.50
2022-12-23T02:51:16.564Z,98815.22
2022-12-23T02:53:48.006Z,98805.19
2022-12-23T02:56:18.313Z,98800.41
2022-12-23T02:58:48.960Z,98799.25
2022-12-23T03:01:17.800Z,98786.38
2022-12-23T03:03:49.176Z,98779.25
2022-12-23T03:06:19.458Z,98761.38
2022-12-23T03:08:47.723Z,98757.22
2022-12-23T03:11:16.851Z,98749.53
2022-12-23T03:13:53.863Z,98757.75
2022-12-23T03:16:24.314Z,98751.59
2022-12-23T03:19:01.289Z,98767.78
2022-12-23T03:21:32.761Z,98750.25
2022-12-23T03:24:07.396Z,98745.09
2022-12-23T03:26:38.099Z,98743.78
2022-12-23T03:29:10.008Z,98740.59
2022-12-23T03:31:39.008Z,98743.63
2022-12-23T03:34:11.844Z,98727.91
2022-12-23T03:36:42.601Z,98712.88
2022-12-23T03:39:13.860Z,98715.06
2022-12-23T03:41:43.777Z,98715.19
2022-12-23T03:44:14.740Z,98702.16
2022-12-23T03:46:47.951Z,98688.28
2022-12-23T03:49:21.350Z,98677.25
2022-12-23T03:51:50.635Z,98670.22
2022-12-23T03:54:21.121Z,98667.69
2022-12-23T03:56:52.650Z,98656.31
2022-12-23T03:59:22.667Z,98657.97
2022-12-23T04:01:55.531Z,98665.28
2022-12-23T04:04:27.199Z,98647.69
2022-12-23T04:06:57.947Z,98634.66
2022-12-23T04:09:28.203Z,98619.06
2022-12-23T04:11:56.801Z,98618.38
2022-12-23T04:14:25.236Z,98600.66
2022-12-23T04:16:55.343Z,98587.94
2022-12-23T04:19:23.507Z,98594.94
2022-12-23T04:21:53.430Z,98598.28
2022-12-23T04:24:21.511Z,98596.63
2022-12-23T04:26:49.745Z,98583.53
2022-12-23T04:29:18.220Z,98583.53
2022-12-23T04:31:46.384Z,98578.50
2022-12-23T04:34:14.631Z,98582.00
2022-12-23T04:36:42.749Z,98566.41
2022-12-23T04:39:12.528Z,98552.84
2022-12-23T04:41:40.662Z,98538.47
2022-12-23T04:44:09.506Z,98529.41
2022-12-23T04:46:38.037Z,98505.13
2022-12-23T04:49:06.449Z,98495.75
2022-12-23T04:51:34.765Z,98478.03
2022-12-23T04:54:02.721Z,98489.38
2022-12-23T04:56:32.334Z,98488.00
2022-12-23T04:59:02.400Z,98480.25
2022-12-23T05:01:30.673Z,98486.09
2022-12-23T05:03:58.816Z,98475.50
2022-12-23T05:06:26.963Z,98470.13
2022-12-23T05:08:55.182Z,98457.88
2022-12-23T05:11:23.363Z,98438.19
2022-12-23T05:13:53.200Z,98432.09
2022-12-23T05:16:21.399Z,98422.66
2022-12-23T05:18:50.019Z,98424.25
2022-12-23T05:21:18.323Z,98403.06
2022-12-23T05:23:46.522Z,98398.00
2022-12-23T05:26:14.818Z,98403.25
2022-12-23T05:28:45.623Z,98399.19
2022-12-23T05:31:15.733Z,98400.09
2022-12-23T05:33:44.333Z,98391.50
2022-12-23T05:36:12.899Z,98371.34
2022-12-23T05:38:41.454Z,98363.09
2022-12-23T05:41:09.785Z,98362.31
2022-12-23T05:43:37.973Z,98357.25
2022-12-23T05:46:06.289Z,98369.44
2022-12-23T05:48:35.873Z,98359.16
2022-12-23T05:51:04.490Z,98360.63
2022-12-23T05:53:32.722Z,98355.06
2022-12-23T05:56:04.673Z,98363.72
2022-12-23T05:58:32.989Z,98360.03
2022-12-23T06:01:02.666Z,98355.13
2022-12-23T06:03:30.892Z,98348.53
2022-12-23T06:06:00.599Z,98354.75
2022-12-23T06:08:28.835Z,98351.06
2022-12-23T06:10:56.966Z,98353.53
2022-12-23T06:13:25.126Z,98359.53
2022-12-23T06:15:53.277Z,98351.09
2022-12-23T06:18:21.938Z,98353.59
2022-12-23T06:20:50.279Z,98337.09
2022-12-23T06:23:19.966Z,98312.78
2022-12-23T06:25:48.173Z,98279.75
2022-12-23T06:28:16.599Z,98254.78
2022-12-23T06:30:44.903Z,98231.91
2022-12-23T06:33:13.061Z,98192.94
2022-12-23T06:35:41.061Z,98192.13
2022-12-23T06:38:12.255Z,98201.66
2022-12-23T06:40:42.144Z,98188.69
2022-12-23T06:43:11.534Z,98191.16
2022-12-23T06:45:39.623Z,98195.31
2022-12-23T06:48:08.677Z,98196.97
2022-12-23T06:50:36.919Z,98194.50
2022-12-23T06:53:05.105Z,98187.94
2022-12-23T06:55:33.472Z,98185.88
2022-12-23T06:58:03.249Z,98173.53
2022-12-23T07:00:32.029Z,98175.81
2022-12-23T07:03:00.418Z,98174.38
2022-12-23T07:05:36.499Z,98170.66
2022-12-23T07:08:05.617Z,98154.16
2022-12-23T07:10:34.868Z,98147.53
2022-12-23T07:13:05.028Z,98163.28
2022-12-23T07:15:33.468Z,98158.31
2022-12-23T07:18:01.820Z,98176.09
2022-12-23T07:20:30.179Z,98193.84
2022-12-23T07:22:58.329Z,98194.28
2022-12-23T07:25:26.499Z,98179.38
2022-12-23T07:27:55.510Z,98184.75
2022-12-23T07:30:25.852Z,98164.28
2022-12-23T07:32:54.480Z,98158.75
2022-12-23T07:35:22.801Z,98153.19
2022-12-23T07:37:52.330Z,98145.72
2022-12-23T07:40:20.454Z,98143.03
2022-12-23T07:42:49.805Z,98141.63
2022-12-23T07:45:18.244Z,98136.84
2022-12-23T07:47:47.885Z,98151.94
2022-12-23T07:50:17.327Z,98148.84
2022-12-23T07:52:45.565Z,98143.47
2022-12-23T07:55:13.912Z,98145.97
2022-12-23T07:57:42.364Z,98158.16
2022-12-23T08:00:11.458Z,98139.38
2022-12-23T08:02:43.672Z,98135.03
2022-12-23T08:05:14.221Z,98120.38
2022-12-23T08:07:42.743Z,98126.34
2022-12-23T08:10:11.275Z,98135.66
2022-12-23T08:12:39.802Z,98131.53
2022-12-23T08:15:09.452Z,98137.56
2022-12-23T08:17:37.971Z,98139.81
2022-12-23T08:20:06.541Z,98135.28
2022-12-23T08:22:36.271Z,98132.38
2022-12-23T08:25:04.871Z,98139.41
2022-12-23T08:27:32.985Z,98134.44
2022-12-23T08:30:01.246Z,98129.69
2022-12-23T08:32:29.553Z,98134.88
2022-12-23T08:34:58.215Z,98140.66
2022-12-23T08:37:26.536Z,98142.31
2022-12-23T08:39:56.247Z,98136.50
2022-12-23T08:42:24.570Z,98139.00
2022-12-23T08:44:52.759Z,98130.94
2022-12-23T08:47:20.995Z,98128.66
2022-12-23T08:49:49.494Z,98138.19
2022-12-23T08:52:17.727Z,98137.16
2022-12-23T08:54:46.242Z,98133.22
2022-12-23T08:57:16.457Z,98131.16
2022-12-23T08:59:44.733Z,98131.38
2022-12-23T09:02:13.452Z,98128.06
2022-12-23T09:04:41.914Z,98131.97
2022-12-23T09:07:10.984Z,98128.28
2022-12-23T09:09:39.265Z,98128.44
2022-12-23T09:12:07.487Z,98123.91
2022-12-23T09:14:37.379Z,98124.91
2022-12-23T09:17:06.045Z,98121.00
2022-12-23T09:19:34.183Z,98128.03
2022-12-23T09:22:02.228Z,98120.78
2022-12-23T09:24:30.546Z,98116.44
2022-12-23T09:26:58.691Z,98115.41
2022-12-23T09:29:26.803Z,98120.78
2022-12-23T09:31:56.520Z,98120.38
2022-12-23T09:34:24.684Z,98131.34
2022-12-23T09:36:55.479Z,98126.97
2022-12-23T09:39:24.447Z,98126.97
2022-12-23T09:42:01.558Z,98126.56
2022-12-23T09:44:43.145Z,98132.34
2022-12-23T09:47:15.745Z,98128.66
2022-12-23T09:49:47.456Z,98124.50
2022-12-23T09:52:20.764Z,98121.16
2022-12-23T09:54:51.465Z,98135.06
2022-12-23T09:57:22.513Z,98148.50
2022-12-23T10:00:02.779Z,98140.22
2022-12-23T10:02:43.086Z,98123.03
2022-12-23T10:05:18.656Z,98133.19
2022-12-23T10:07:50.775Z,98139.38
2022-12-23T10:10:21.700Z,98126.94
2022-12-23T10:12:52.449Z,98126.53
2022-12-23T10:15:23.544Z,98131.50
2022-12-23T10:17:56.150Z,98139.75
2022-12-23T10:20:30.903Z,98137.25
2022-12-23T10:23:00.455Z,98147.19
2022-12-23T10:25:33.623Z,98143.88
2022-12-23T10:28:02.139Z,98149.66
2022-12-23T10:33:24.094Z,98152.94
2022-12-23T10:35:58.569Z,98150.66
2022-12-23T10:38:36.962Z,98154.38
2022-12-23T10:41:09.999Z,98165.75
2022-12-23T10:43:42.732Z,98164.94
2022-12-23T10:46:17.016Z,98170.09
2022-12-23T10:48:52.054Z,98168.22
2022-12-23T10:51:22.604Z,98169.50
2022-12-23T10:53:52.629Z,98180.06
2022-12-23T10:56:22.017Z,98176.94
2022-12-23T10:58:51.971Z,98181.94
2022-12-23T11:01:26.596Z,98193.53
2022-12-23T11:04:00.835Z,98208.44
2022-12-23T11:06:36.528Z,98220.88
2022-12-23T11:09:06.471Z,98225.41
2022-12-23T11:11:53.688Z,98233.28
2022-12-23T11:14:35.922Z,98244.03
2022-12-23T11:17:06.397Z,98241.94
2022-12-23T11:19:36.004Z,98243.19
2022-12-23T11:22:05.012Z,98245.25
2022-12-23T11:24:39.601Z,98256.84
2022-12-23T11:27:16.207Z,98253.13
2022-12-23T11:29:46.950Z,98252.69
2022-12-23T11:32:17.893Z,98257.06
2022-12-23T11:34:48.563Z,98266.78
2022-12-23T11:37:29.968Z,98277.97
2022-12-23T11:39:58.652Z,98250.00
2022-12-23T11:42:29.575Z,98260.34
2022-12-23T11:44:59.985Z,98258.69
2022-12-23T11:47:31.169Z,98268.22
2022-12-23T11:50:03.930Z,98269.28
2022-12-23T11:52:33.705Z,98266.38
2022-12-23T11:55:03.103Z,98285.03
2022-12-23T11:57:35.043Z,98276.31
2022-12-23T12:00:06.433Z,98293.72
2022-12-23T12:02:37.936Z,98286.69
2022-12-23T12:05:14.984Z,98301.19
2022-12-23T12:07:43.642Z,98301.34
2022-12-23T12:10:17.622Z,98299.13
2022-12-23T12:12:51.348Z,98303.66
2022-12-23T12:15:26.467Z,98307.97
2022-12-23T12:17:56.884Z,98300.69
2022-12-23T12:20:29.372Z,98311.44
2022-12-23T12:22:59.452Z,98316.19
2022-12-23T12:25:39.703Z,98306.41
2022-12-23T12:28:12.537Z,98315.38
2022-12-23T12:30:52.031Z,98317.19
2022-12-23T12:33:23.249Z,98331.41
2022-12-23T12:36:00.241Z,98314.28
2022-12-23T12:38:33.198Z,98325.81
2022-12-23T12:41:03.598Z,98331.97
2022-12-23T12:43:32.767Z,98333.09
2022-12-23T12:46:07.813Z,98319.31
2022-12-23T12:48:40.459Z,98322.56
2022-12-23T12:51:15.120Z,98333.06
2022-12-23T12:53:48.384Z,98331.72
2022-12-23T12:56:20.126Z,98325.22
2022-12-23T12:58:48.579Z,98336.16
2022-12-23T13:01:25.265Z,98332.44
2022-12-23T13:04:07.313Z,98337.84
2022-12-23T13:06:42.654Z,98326.38
2022-12-23T13:09:15.622Z,98327.69
2022-12-23T13:11:47.524Z,98329.03
2022-12-23T13:14:21.554Z,98318.28
2022-12-23T13:16:54.043Z,98323.34
2022-12-23T13:19:31.198Z,98320.66
2022-12-23T13:22:03.840Z,98328.78
2022-12-23T13:24:35.887Z,98330.06
2022-12-23T13:27:08.362Z,98334.25
2022-12-23T13:29:57.589Z,98339.09
2022-12-23T13:32:32.642Z,98336.19
2022-12-23T13:35:04.955Z,98340.78
2022-12-23T13:37:40.995Z,98351.38
2022-12-23T13:40:26.939Z,98352.19
2022-12-23T13:42:57.096Z,98344.75
2022-12-23T13:45:27.583Z,98359.25
2022-12-23T13:48:05.104Z,98357.59
2022-12-23T13:50:37.075Z,98361.38
2022-12-23T13:53:15.156Z,98364.06
2022-12-23T13:55:53.654Z,98368.19
2022-12-23T13:58:23.160Z,98372.59
2022-12-23T14:00:58.770Z,98380.03
2022-12-23T14:03:33.415Z,98384.78
2022-12-23T14:06:19.697Z,98400.97
2022-12-23T14:08:49.712Z,98395.34
2022-12-23T14:11:20.166Z,98401.63
2022-12-23T14:13:55.266Z,98403.66
2022-12-23T14:16:38.537Z,98400.78
2022-12-23T14:19:15.787Z,98390.63
2022-12-23T14:21:48.780Z,98398.28
2022-12-23T14:24:31.777Z,98403.06
2022-12-23T14:27:27.079Z,98404.09
2022-12-23T14:30:06.810Z,98405.94
2022-12-23T14:32:40.975Z,98404.09
2022-12-23T14:35:33.375Z,98406.38
2022-12-23T14:38:24.933Z,98398.72
2022-12-23T14:41:02.299Z,98401.22
2022-12-23T14:43:51.407Z,98390.06
2022-12-23T14:46:38.308Z,98396.25
2022-12-23T14:49:38.793Z,98393.34
2022-12-23T14:52:27.346Z,98392.31
2022-12-23T14:55:28.557Z,98398.28
2022-12-23T14:57:44.460Z,98402.69
2022-12-23T15:00:14.313Z,98399.38
2022-12-23T15:02:42.522Z,98395.25
2022-12-23T15:05:11.128Z,98413.31
2022-12-23T15:07:41.677Z,98404.41
2022-12-23T15:10:17.184Z,98401.31
2022-12-23T15:12:48.433Z,98414.63
2022-12-23T15:15:19.840Z,98413.81
2022-12-23T15:17:48.364Z,98414.03
2022-12-23T15:20:19.838Z,98420.50
2022-12-23T15:22:48.586Z,98419.28
2022-12-23T15:25:21.396Z,98419.31
2022-12-23T15:27:51.867Z,98431.72
2022-12-23T15:30:25.623Z,98424.69
2022-12-23T15:32:59.235Z,98437.56
2022-12-23T15:35:29.423Z,98440.84
2022-12-23T15:37:58.309Z,98442.91
2022-12-23T15:40:28.233Z,98451.19
2022-12-23T15:42:56.429Z,98454.50
2022-12-23T15:45:32.756Z,98446.22
2022-12-23T15:48:01.594Z,98459.47
2022-12-23T15:50:30.330Z,98470.03
2022-12-23T15:53:06.124Z,98474.38
2022-12-23T15:55:35.883Z,98477.25
2022-12-23T15:58:05.011Z,98482.25
2022-12-23T16:00:38.309Z,98491.34
2022-12-23T16:03:13.627Z,98491.34
2022-12-23T16:05:46.174Z,98497.97
2022-12-23T16:08:29.024Z,98488.03
2022-12-23T16:11:06.702Z,98506.66
2022-12-23T16:13:35.266Z,98509.16
2022-12-23T16:16:21.252Z,98511.00
2022-12-23T16:18:49.528Z,98505.63
2022-12-23T16:21:18.092Z,98513.31
2022-12-23T16:23:50.436Z,98508.94
2022-12-23T16:26:19.165Z,98502.72
2022-12-23T16:28:48.484Z,98505.41
2022-12-23T16:31:18.117Z,98500.22
2022-12-23T16:33:50.666Z,98509.34
2022-12-23T16:36:21.555Z,98510.63
2022-12-23T16:38:51.560Z,98513.94
2022-12-23T16:41:20.324Z,98522.81
2022-12-23T16:43:52.371Z,98522.00
2022-12-23T16:46:22.584Z,98535.69
2022-12-23T16:48:53.508Z,98533.00
2022-12-23T16:51:24.892Z,98533.41
2022-12-23T16:53:55.206Z,98541.09
2022-12-23T16:56:24.989Z,98538.19
2022-12-23T16:58:53.220Z,98540.22
2022-12-23T17:01:23.704Z,98540.03
2022-12-23T17:03:53.760Z,98545.78
2022-12-23T17:06:21.925Z,98539.38
2022-12-23T17:08:50.758Z,98538.53
2022-12-23T17:11:20.378Z,98546.78
2022-12-23T17:13:48.751Z,98546.31
2022-12-23T17:16:20.015Z,98550.00
2022-12-23T17:18:48.279Z,98543.53
2022-12-23T17:21:21.771Z,98548.69
2022-12-23T17:23:50.737Z,98549.47
2022-12-23T17:26:19.885Z,98551.44
2022-12-23T17:28:48.227Z,98553.88
2022-12-23T17:31:26.002Z,98557.44
2022-12-23T17:33:55.436Z,98554.28
2022-12-23T17:36:26.458Z,98558.38
2022-12-23T17:39:00.348Z,98551.78
2022-12-23T17:41:30.172Z,98568.31
2022-12-23T17:43:58.855Z,98560.00
2022-12-23T17:46:28.700Z,98567.84
2022-12-23T17:48:59.292Z,98571.53
2022-12-23T17:51:29.597Z,98580.63
2022-12-23T17:53:58.924Z,98583.50
2022-12-23T17:56:28.194Z,98580.22
2022-12-23T17:58:56.432Z,98580.22
2022-12-23T18:01:25.666Z,98579.47
2022-12-23T18:03:54.618Z,98589.19
2022-12-23T18:06:23.875Z,98593.16
2022-12-23T18:08:53.981Z,98589.84
2022-12-23T18:11:23.914Z,98593.16
2022-12-23T18:13:53.571Z,98594.81
2022-12-23T18:16:21.822Z,98598.78
2022-12-23T18:18:50.104Z,98600.69
2022-12-23T18:21:21.823Z,98604.25
2022-12-23T18:23:50.494Z,98601.16
2022-12-23T18:26:20.150Z,98605.50
2022-12-23T18:28:48.612Z,98612.16
2022-12-23T18:31:17.674Z,98618.16
2022-12-23T18:33:46.106Z,98612.00
2022-12-23T18:36:21.518Z,98617.63
2022-12-23T18:38:49.843Z,98628.63
2022-12-23T18:41:17.982Z,98625.28
2022-12-23T18:43:47.832Z,98627.97
2022-12-23T18:46:16.078Z,98629.03
2022-12-23T18:48:44.340Z,98635.03
2022-12-23T18:51:14.819Z,98630.66
2022-12-23T18:53:43.752Z,98638.13
2022-12-23T18:56:13.702Z,98649.34
2022-12-23T18:58:41.900Z,98656.97
2022-12-23T19:01:14.107Z,98652.19
2022-12-23T19:03:42.946Z,98648.88
2022-12-23T19:06:13.496Z,98646.44
2022-12-23T19:08:42.488Z,98647.88
2022-12-23T19:11:12.045Z,98665.47
2022-12-23T19:13:40.525Z,98667.09
2022-12-23T19:16:08.740Z,98668.13
2022-12-23T19:18:38.408Z,98661.47
2022-12-23T19:21:06.817Z,98666.22
2022-12-23T19:23:35.450Z,98671.34
2022-12-23T19:26:06.148Z,98673.63
2022-12-23T19:28:34.528Z,98669.66
2022-12-23T19:31:07.537Z,98669.88
2022-12-23T19:33:38.997Z,98673.16
2022-12-23T19:36:18.613Z,98671.47
2022-12-23T19:38:49.728Z,98677.50
2022-12-23T19:41:18.554Z,98676.84
2022-12-23T19:43:47.314Z,98674.81
2022-12-23T19:46:16.399Z,98669.81
2022-12-23T19:48:50.914Z,98679.53
2022-12-23T19:51:19.867Z,98670.41
2022-12-23T19:53:50.612Z,98675.56
2022-12-23T19:56:21.233Z,98675.97
2022-12-23T19:58:50.438Z,98681.66
2022-12-23T20:01:20.131Z,98678.75
2022-12-23T20:03:50.245Z,98685.66
2022-12-23T20:06:20.059Z,98688.28
2022-12-23T20:08:49.032Z,98686.34
2022-12-23T20:11:17.957Z,98695.81
2022-12-23T20:13:46.497Z,98689.53
2022-12-23T20:16:14.868Z,98690.75
2022-12-23T20:18:43.054Z,98694.84
2022-12-23T20:21:12.814Z,98700.41
2022-12-23T20:23:41.237Z,98699.97
2022-12-23T20:26:10.052Z,98704.69
2022-12-23T20:28:38.238Z,98712.00
2022-12-23T20:31:09.083Z,98721.91
2022-12-23T20:33:37.554Z,98719.50
2022-12-23T20:36:07.306Z,98730.03
2022-12-23T20:38:37.397Z,98732.53
2022-12-23T20:41:05.711Z,98741.69
2022-12-23T20:43:34.909Z,98739.84
2022-12-23T20:46:03.281Z,98745.78
2022-12-23T20:48:34.457Z,98739.97
2022-12-23T20:51:05.197Z,98752.63
2022-12-23T20:53:33.697Z,98753.66
2022-12-23T20:56:04.476Z,98759.88
2022-12-23T20:58:50.403Z,98761.09
2022-12-23T21:01:20.843Z,98761.53
2022-12-23T21:03:49.629Z,98767.09
2022-12-23T21:06:17.775Z,98766.19
2022-12-23T21:08:45.930Z,98777.59
2022-12-23T21:11:15.858Z,98780.91
2022-12-23T21:13:44.176Z,98787.66
2022-12-23T21:16:13.072Z,98793.63
2022-12-23T21:18:42.150Z,98793.53
2022-12-23T21:21:10.702Z,98800.94
2022-12-23T21:23:39.721Z,98800.94
2022-12-23T21:26:09.161Z,98800.13
2022-12-23T21:28:39.753Z,98795.03
2022-12-23T21:31:08.527Z,98802.41
2022-12-23T21:33:38.163Z,98799.81
2022-12-23T21:36:07.443Z,98811.31
2022-12-23T21:38:36.514Z,98814.75
2022-12-23T21:41:06.599Z,98811.94
2022-12-23T21:43:35.017Z,98819.91
2022-12-23T21:46:05.682Z,98822.59
2022-12-23T21:48:34.977Z,98813.53
2022-12-23T21:51:07.176Z,98823.31
2022-12-23T21:53:35.715Z,98832.38
2022-12-23T21:56:05.034Z,98841.97
2022-12-23T21:58:33.417Z,98844.19
2022-12-23T22:01:02.741Z,98844.06
2022-12-23T22:03:32.401Z,98842.31
2022-12-23T22:06:09.947Z,98841.81
2022-12-23T22:08:39.222Z,98837.19
2022-12-23T22:11:08.798Z,98834.50
2022-12-23T22:13:37.189Z,98849.97
2022-12-23T22:16:06.448Z,98848.81
2022-12-23T22:18:36.329Z,98856.19
2022-12-23T22:21:05.573Z,98855.44
2022-12-23T22:23:35.120Z,98846.25
2022-12-23T22:26:03.651Z,98851.28
2022-12-23T22:28:32.347Z,98855.00
2022-12-23T22:31:02.840Z,98855.69
2022-12-23T22:33:32.411Z,98864.47
2022-12-23T22:36:02.632Z,98859.78
2022-12-23T22:38:31.015Z,98864.16
2022-12-23T22:40:59.363Z,98876.72
2022-12-23T22:43:27.608Z,98887.31
2022-12-23T22:45:59.277Z,98886.00
2022-12-23T22:48:29.039Z,98898.38
2022-12-23T22:51:04.296Z,98903.75
2022-12-23T22:53:32.598Z,98905.41
2022-12-23T22:56:01.347Z,98909.44
2022-12-23T22:58:30.207Z,98909.44
2022-12-23T23:00:58.939Z,98919.81
2022-12-23T23:03:27.791Z,98917.47
2022-12-23T23:06:00.007Z,98928.34
2022-12-23T23:08:30.195Z,98923.63
2022-12-23T23:10:59.171Z,98924.78
2022-12-23T23:13:28.792Z,98928.97
2022-12-23T23:15:57.909Z,98928.81
2022-12-23T23:18:27.188Z,98927.63
2022-12-23T23:20:55.605Z,98931.81
2022-12-23T23:23:23.915Z,98931.44
2022-12-23T23:25:53.605Z,98940.63
2022-12-23T23:28:21.819Z,98948.19
2022-12-23T23:31:03.611Z,98942.31
2022-12-23T23:33:38.431Z,98942.78
2022-12-23T23:36:07.160Z,98942.41
2022-12-23T23:38:35.577Z,98951.16
2022-12-23T23:41:05.630Z,98962.34
2022-12-23T23:43:33.905Z,98961.00
2022-12-23T23:46:02.215Z,98961.88
2022-12-23T23:48:30.478Z,98955.19
2022-12-23T23:51:03.950Z,98963.25
2022-12-23T23:53:32.284Z,98961.13
2022-12-23T23:56:07.202Z,98968.00
2022-12-23T23:58:36.160Z,98969.72
